sensor_id;sensor_type;location;lat;lon;timestamp;temperature;humidity
18305;DHT22;9278;52.156;21.048;2022-11-21T00:01:18;-2.70;1.00
18305;DHT22;9278;52.156;21.048;2022-11-21T00:03:48;-2.70;1.00
18305;DHT22;9278;52.156;21.048;2022-11-21T00:06:17;-2.70;1.00
18305;DHT22;9278;52.156;21.048;2022-11-21T00:08:45;-2.50;1.00
18305;DHT22;9278;52.156;21.048;2022-11-21T00:11:14;-2.20;99.90
18305;DHT22;9278;52.156;21.048;2022-11-21T00:13:42;-1.90;99.90
18305;DHT22;9278;52.156;21.048;2022-11-21T00:16:14;-1.80;99.90
18305;DHT22;9278;52.156;21.048;2022-11-21T00:18:42;-1.60;99.90
18305;DHT22;9278;52.156;21.048;2022-11-21T00:21:13;-1.50;99.90
18305;DHT22;9278;52.156;21.048;2022-11-21T00:23:42;-1.40;99.90
18305;DHT22;9278;52.156;21.048;2022-11-21T00:26:12;-1.30;99.90
18305;DHT22;9278;52.156;21.048;2022-11-21T00:28:40;-1.30;99.90
18305;DHT22;9278;52.156;21.048;2022-11-21T00:31:16;-1.30;99.90
18305;DHT22;9278;52.156;21.048;2022-11-21T00:33:44;-1.30;99.90
18305;DHT22;9278;52.156;21.048;2022-11-21T00:36:13;-1.40;99.90
18305;DHT22;9278;52.156;21.048;2022-11-21T00:38:41;-1.30;99.90
18305;DHT22;9278;52.156;21.048;2022-11-21T00:41:09;-1.30;99.90
18305;DHT22;9278;52.156;21.048;2022-11-21T00:43:37;-1.30;99.90
18305;DHT22;9278;52.156;21.048;2022-11-21T00:46:05;-1.10;99.90
18305;DHT22;9278;52.156;21.048;2022-11-21T00:48:34;-1.10;99.90
18305;DHT22;9278;52.156;21.048;2022-11-21T00:51:02;-1.10;99.90
18305;DHT22;9278;52.156;21.048;2022-11-21T00:53:31;-1.00;99.90
18305;DHT22;9278;52.156;21.048;2022-11-21T00:55:59;-1.10;99.90
18305;DHT22;9278;52.156;21.048;2022-11-21T00:58:27;-1.30;99.90
18305;DHT22;9278;52.156;21.048;2022-11-21T01:01:06;-1.20;99.90
18305;DHT22;9278;52.156;21.048;2022-11-21T01:03:35;-1.10;99.90
18305;DHT22;9278;52.156;21.048;2022-11-21T01:06:04;-1.20;99.90
18305;DHT22;9278;52.156;21.048;2022-11-21T01:08:35;-1.30;99.90
18305;DHT22;9278;52.156;21.048;2022-11-21T01:11:04;-1.40;99.90
18305;DHT22;9278;52.156;21.048;2022-11-21T01:13:33;-1.50;99.90
18305;DHT22;9278;52.156;21.048;2022-11-21T01:16:02;-1.80;99.90
18305;DHT22;9278;52.156;21.048;2022-11-21T01:18:31;-1.70;99.90
18305;DHT22;9278;52.156;21.048;2022-11-21T01:21:00;-1.70;99.90
18305;DHT22;9278;52.156;21.048;2022-11-21T01:23:28;-1.70;99.90
18305;DHT22;9278;52.156;21.048;2022-11-21T01:26:01;-1.70;99.90
18305;DHT22;9278;52.156;21.048;2022-11-21T01:28:30;-1.70;99.90
18305;DHT22;9278;52.156;21.048;2022-11-21T01:31:05;-1.60;99.90
18305;DHT22;9278;52.156;21.048;2022-11-21T01:33:33;-1.50;99.90
18305;DHT22;9278;52.156;21.048;2022-11-21T01:36:07;-1.50;99.90
18305;DHT22;9278;52.156;21.048;2022-11-21T01:38:35;-1.70;99.90
18305;DHT22;9278;52.156;21.048;2022-11-21T01:41:05;-1.70;99.90
18305;DHT22;9278;52.156;21.048;2022-11-21T01:43:33;-1.70;99.90
18305;DHT22;9278;52.156;21.048;2022-11-21T01:46:04;-1.70;99.90
18305;DHT22;9278;52.156;21.048;2022-11-21T01:48:36;-1.70;99.90
18305;DHT22;9278;52.156;21.048;2022-11-21T01:51:08;-1.90;99.90
18305;DHT22;9278;52.156;21.048;2022-11-21T01:53:39;-2.00;99.90
18305;DHT22;9278;52.156;21.048;2022-11-21T01:56:10;-2.20;99.90
18305;DHT22;9278;52.156;21.048;2022-11-21T01:58:39;-2.30;99.90
18305;DHT22;9278;52.156;21.048;2022-11-21T02:01:08;-2.50;99.90
18305;DHT22;9278;52.156;21.048;2022-11-21T02:03:39;-2.60;99.90
18305;DHT22;9278;52.156;21.048;2022-11-21T02:06:09;-2.70;99.90
18305;DHT22;9278;52.156;21.048;2022-11-21T02:08:39;-2.80;99.90
18305;DHT22;9278;52.156;21.048;2022-11-21T02:11:16;-3.00;99.90
18305;DHT22;9278;52.156;21.048;2022-11-21T02:13:48;-3.10;99.90
18305;DHT22;9278;52.156;21.048;2022-11-21T02:16:16;-3.10;99.90
18305;DHT22;9278;52.156;21.048;2022-11-21T02:18:44;-3.20;99.90
18305;DHT22;9278;52.156;21.048;2022-11-21T02:21:20;-3.30;99.90
18305;DHT22;9278;52.156;21.048;2022-11-21T02:23:55;-3.20;1.00
18305;DHT22;9278;52.156;21.048;2022-11-21T02:26:28;-3.30;1.00
18305;DHT22;9278;52.156;21.048;2022-11-21T02:28:57;-3.20;1.00
18305;DHT22;9278;52.156;21.048;2022-11-21T02:31:25;-3.30;1.00
18305;DHT22;9278;52.156;21.048;2022-11-21T02:33:54;-3.30;1.00
18305;DHT22;9278;52.156;21.048;2022-11-21T02:36:38;-3.40;1.00
18305;DHT22;9278;52.156;21.048;2022-11-21T02:39:09;-3.30;1.00
18305;DHT22;9278;52.156;21.048;2022-11-21T02:41:43;-3.40;1.00
18305;DHT22;9278;52.156;21.048;2022-11-21T02:44:19;-3.50;1.00
18305;DHT22;9278;52.156;21.048;2022-11-21T02:46:50;-3.40;1.00
18305;DHT22;9278;52.156;21.048;2022-11-21T02:49:26;-3.30;1.00
18305;DHT22;9278;52.156;21.048;2022-11-21T02:51:56;-3.40;1.00
18305;DHT22;9278;52.156;21.048;2022-11-21T02:54:24;-3.50;1.00
18305;DHT22;9278;52.156;21.048;2022-11-21T02:56:54;-3.50;1.00
18305;DHT22;9278;52.156;21.048;2022-11-21T02:59:23;-3.50;1.00
18305;DHT22;9278;52.156;21.048;2022-11-21T03:01:51;-3.60;1.00
18305;DHT22;9278;52.156;21.048;2022-11-21T03:04:19;-3.40;1.00
18305;DHT22;9278;52.156;21.048;2022-11-21T03:06:47;-3.50;1.00
18305;DHT22;9278;52.156;21.048;2022-11-21T03:09:15;-3.60;1.00
18305;DHT22;9278;52.156;21.048;2022-11-21T03:11:43;-3.70;1.00
18305;DHT22;9278;52.156;21.048;2022-11-21T03:14:12;-3.70;1.00
18305;DHT22;9278;52.156;21.048;2022-11-21T03:16:40;-3.60;1.00
18305;DHT22;9278;52.156;21.048;2022-11-21T03:19:08;-3.60;1.00
18305;DHT22;9278;52.156;21.048;2022-11-21T03:21:36;-3.50;1.00
18305;DHT22;9278;52.156;21.048;2022-11-21T03:24:06;-3.60;1.00
18305;DHT22;9278;52.156;21.048;2022-11-21T03:26:34;-3.60;1.00
18305;DHT22;9278;52.156;21.048;2022-11-21T03:29:02;-3.60;1.00
18305;DHT22;9278;52.156;21.048;2022-11-21T03:31:32;-3.60;1.00
18305;DHT22;9278;52.156;21.048;2022-11-21T03:34:00;-3.60;1.00
18305;DHT22;9278;52.156;21.048;2022-11-21T03:36:28;-3.70;1.00
18305;DHT22;9278;52.156;21.048;2022-11-21T03:38:56;-3.70;1.00
18305;DHT22;9278;52.156;21.048;2022-11-21T03:41:25;-3.70;1.00
18305;DHT22;9278;52.156;21.048;2022-11-21T03:43:56;-3.70;1.00
18305;DHT22;9278;52.156;21.048;2022-11-21T03:46:25;-3.70;1.00
18305;DHT22;9278;52.156;21.048;2022-11-21T03:48:55;-3.70;1.00
18305;DHT22;9278;52.156;21.048;2022-11-21T03:51:23;-3.80;1.00
18305;DHT22;9278;52.156;21.048;2022-11-21T03:53:52;-3.80;1.00
18305;DHT22;9278;52.156;21.048;2022-11-21T03:56:20;-3.80;1.00
18305;DHT22;9278;52.156;21.048;2022-11-21T03:58:48;-3.90;1.00
18305;DHT22;9278;52.156;21.048;2022-11-21T04:01:16;-3.90;1.00
18305;DHT22;9278;52.156;21.048;2022-11-21T04:03:45;-4.00;1.00
18305;DHT22;9278;52.156;21.048;2022-11-21T04:06:17;-4.00;1.00
18305;DHT22;9278;52.156;21.048;2022-11-21T04:08:45;-4.10;1.00
18305;DHT22;9278;52.156;21.048;2022-11-21T04:11:14;-4.00;1.00
18305;DHT22;9278;52.156;21.048;2022-11-21T04:13:42;-4.10;1.00
18305;DHT22;9278;52.156;21.048;2022-11-21T04:16:10;-4.00;1.00
18305;DHT22;9278;52.156;21.048;2022-11-21T04:18:38;-4.00;1.00
18305;DHT22;9278;52.156;21.048;2022-11-21T04:21:07;-4.00;1.00
18305;DHT22;9278;52.156;21.048;2022-11-21T04:23:36;-4.10;1.00
18305;DHT22;9278;52.156;21.048;2022-11-21T04:26:04;-4.10;1.00
18305;DHT22;9278;52.156;21.048;2022-11-21T04:28:33;-4.10;1.00
18305;DHT22;9278;52.156;21.048;2022-11-21T04:31:02;-4.10;1.00
18305;DHT22;9278;52.156;21.048;2022-11-21T04:33:37;-4.20;1.00
18305;DHT22;9278;52.156;21.048;2022-11-21T04:36:06;-4.20;1.00
18305;DHT22;9278;52.156;21.048;2022-11-21T04:38:35;-4.20;1.00
18305;DHT22;9278;52.156;21.048;2022-11-21T04:41:04;-4.20;1.00
18305;DHT22;9278;52.156;21.048;2022-11-21T04:43:32;-4.10;1.00
18305;DHT22;9278;52.156;21.048;2022-11-21T04:46:00;-4.10;1.00
18305;DHT22;9278;52.156;21.048;2022-11-21T04:48:28;-4.20;1.00
18305;DHT22;9278;52.156;21.048;2022-11-21T04:50:58;-4.20;1.00
18305;DHT22;9278;52.156;21.048;2022-11-21T04:53:26;-4.10;1.00
18305;DHT22;9278;52.156;21.048;2022-11-21T04:55:54;-4.20;1.00
18305;DHT22;9278;52.156;21.048;2022-11-21T04:58:24;-4.30;1.00
18305;DHT22;9278;52.156;21.048;2022-11-21T05:00:52;-4.50;1.00
18305;DHT22;9278;52.156;21.048;2022-11-21T05:03:20;-4.60;1.00
18305;DHT22;9278;52.156;21.048;2022-11-21T05:05:48;-4.60;1.00
18305;DHT22;9278;52.156;21.048;2022-11-21T05:08:16;-4.70;1.00
18305;DHT22;9278;52.156;21.048;2022-11-21T05:10:44;-4.60;1.00
18305;DHT22;9278;52.156;21.048;2022-11-21T05:13:31;-4.60;1.00
18305;DHT22;9278;52.156;21.048;2022-11-21T05:15:59;-4.60;1.00
18305;DHT22;9278;52.156;21.048;2022-11-21T05:18:27;-4.60;1.00
18305;DHT22;9278;52.156;21.048;2022-11-21T05:20:55;-4.60;1.00
18305;DHT22;9278;52.156;21.048;2022-11-21T05:23:23;-4.60;1.00
18305;DHT22;9278;52.156;21.048;2022-11-21T05:25:51;-4.40;1.00
18305;DHT22;9278;52.156;21.048;2022-11-21T05:28:19;-4.50;1.00
18305;DHT22;9278;52.156;21.048;2022-11-21T05:30:48;-4.50;1.00
18305;DHT22;9278;52.156;21.048;2022-11-21T05:33:17;-4.50;1.00
18305;DHT22;9278;52.156;21.048;2022-11-21T05:35:45;-4.60;1.00
18305;DHT22;9278;52.156;21.048;2022-11-21T05:38:13;-4.70;1.00
18305;DHT22;9278;52.156;21.048;2022-11-21T05:40:41;-4.80;1.00
18305;DHT22;9278;52.156;21.048;2022-11-21T05:43:10;-4.80;1.00
18305;DHT22;9278;52.156;21.048;2022-11-21T05:45:57;-4.70;1.00
18305;DHT22;9278;52.156;21.048;2022-11-21T05:48:25;-4.60;1.00
18305;DHT22;9278;52.156;21.048;2022-11-21T05:50:53;-4.50;1.00
18305;DHT22;9278;52.156;21.048;2022-11-21T05:53:21;-4.50;1.00
18305;DHT22;9278;52.156;21.048;2022-11-21T05:55:49;-4.50;1.00
18305;DHT22;9278;52.156;21.048;2022-11-21T05:58:17;-4.30;1.00
18305;DHT22;9278;52.156;21.048;2022-11-21T06:00:45;-4.30;1.00
18305;DHT22;9278;52.156;21.048;2022-11-21T06:03:15;-4.40;1.00
18305;DHT22;9278;52.156;21.048;2022-11-21T06:06:02;-4.40;1.00
18305;DHT22;9278;52.156;21.048;2022-11-21T06:08:34;-4.40;1.00
18305;DHT22;9278;52.156;21.048;2022-11-21T06:11:03;-4.40;1.00
18305;DHT22;9278;52.156;21.048;2022-11-21T06:13:32;-4.40;1.00
18305;DHT22;9278;52.156;21.048;2022-11-21T06:16:02;-4.30;1.00
18305;DHT22;9278;52.156;21.048;2022-11-21T06:18:33;-4.30;1.00
18305;DHT22;9278;52.156;21.048;2022-11-21T06:21:02;-4.20;1.00
18305;DHT22;9278;52.156;21.048;2022-11-21T06:23:30;-4.30;1.00
18305;DHT22;9278;52.156;21.048;2022-11-21T06:26:00;-4.10;1.00
18305;DHT22;9278;52.156;21.048;2022-11-21T06:28:30;-4.10;1.00
18305;DHT22;9278;52.156;21.048;2022-11-21T06:31:02;-4.00;1.00
18305;DHT22;9278;52.156;21.048;2022-11-21T06:33:32;-3.90;1.00
18305;DHT22;9278;52.156;21.048;2022-11-21T06:36:01;-3.70;1.00
18305;DHT22;9278;52.156;21.048;2022-11-21T06:38:30;-3.80;1.00
18305;DHT22;9278;52.156;21.048;2022-11-21T06:41:02;-3.60;1.00
18305;DHT22;9278;52.156;21.048;2022-11-21T06:43:30;-3.50;1.00
18305;DHT22;9278;52.156;21.048;2022-11-21T06:45:58;-3.40;1.00
18305;DHT22;9278;52.156;21.048;2022-11-21T06:48:30;-3.40;1.00
18305;DHT22;9278;52.156;21.048;2022-11-21T06:51:02;-3.30;99.90
18305;DHT22;9278;52.156;21.048;2022-11-21T06:53:31;-3.20;99.90
18305;DHT22;9278;52.156;21.048;2022-11-21T06:55:59;-3.20;99.90
18305;DHT22;9278;52.156;21.048;2022-11-21T06:58:27;-3.20;99.90
18305;DHT22;9278;52.156;21.048;2022-11-21T07:00:56;-3.20;99.90
18305;DHT22;9278;52.156;21.048;2022-11-21T07:03:24;-3.00;99.90
18305;DHT22;9278;52.156;21.048;2022-11-21T07:05:53;-3.00;99.90
18305;DHT22;9278;52.156;21.048;2022-11-21T07:08:25;-2.80;99.90
18305;DHT22;9278;52.156;21.048;2022-11-21T07:10:54;-2.80;99.90
18305;DHT22;9278;52.156;21.048;2022-11-21T07:13:42;-2.80;99.90
18305;DHT22;9278;52.156;21.048;2022-11-21T07:16:11;-2.80;99.90
18305;DHT22;9278;52.156;21.048;2022-11-21T07:18:41;-2.70;99.90
18305;DHT22;9278;52.156;21.048;2022-11-21T07:21:11;-2.70;99.90
18305;DHT22;9278;52.156;21.048;2022-11-21T07:23:39;-2.70;99.90
18305;DHT22;9278;52.156;21.048;2022-11-21T07:26:09;-2.60;99.90
18305;DHT22;9278;52.156;21.048;2022-11-21T07:28:37;-2.60;99.90
18305;DHT22;9278;52.156;21.048;2022-11-21T07:31:08;-2.50;99.90
18305;DHT22;9278;52.156;21.048;2022-11-21T07:33:40;-2.60;99.90
18305;DHT22;9278;52.156;21.048;2022-11-21T07:36:11;-2.50;99.90
18305;DHT22;9278;52.156;21.048;2022-11-21T07:38:39;-2.40;99.90
18305;DHT22;9278;52.156;21.048;2022-11-21T07:41:08;-2.40;99.90
18305;DHT22;9278;52.156;21.048;2022-11-21T07:43:36;-2.30;99.90
18305;DHT22;9278;52.156;21.048;2022-11-21T07:46:04;-2.10;99.90
18305;DHT22;9278;52.156;21.048;2022-11-21T07:48:32;-2.40;99.90
18305;DHT22;9278;52.156;21.048;2022-11-21T07:51:03;-2.50;99.90
18305;DHT22;9278;52.156;21.048;2022-11-21T07:53:32;-2.50;99.90
18305;DHT22;9278;52.156;21.048;2022-11-21T07:56:01;-2.40;99.90
18305;DHT22;9278;52.156;21.048;2022-11-21T07:58:29;-2.30;99.90
18305;DHT22;9278;52.156;21.048;2022-11-21T08:00:57;-2.20;99.90
18305;DHT22;9278;52.156;21.048;2022-11-21T08:03:25;-2.40;99.90
18305;DHT22;9278;52.156;21.048;2022-11-21T08:05:53;-2.40;99.90
18305;DHT22;9278;52.156;21.048;2022-11-21T08:08:21;-2.20;99.90
18305;DHT22;9278;52.156;21.048;2022-11-21T08:10:50;-2.30;99.90
18305;DHT22;9278;52.156;21.048;2022-11-21T08:13:18;-2.00;99.90
18305;DHT22;9278;52.156;21.048;2022-11-21T08:15:46;-2.00;99.90
18305;DHT22;9278;52.156;21.048;2022-11-21T08:18:16;-1.80;99.90
18305;DHT22;9278;52.156;21.048;2022-11-21T08:20:44;-1.60;99.90
18305;DHT22;9278;52.156;21.048;2022-11-21T08:23:12;-1.60;99.90
18305;DHT22;9278;52.156;21.048;2022-11-21T08:25:41;-1.70;99.90
18305;DHT22;9278;52.156;21.048;2022-11-21T08:28:11;-1.50;99.90
18305;DHT22;9278;52.156;21.048;2022-11-21T08:30:39;-1.40;99.90
18305;DHT22;9278;52.156;21.048;2022-11-21T08:33:07;-1.40;99.90
18305;DHT22;9278;52.156;21.048;2022-11-21T08:35:36;-1.50;99.90
18305;DHT22;9278;52.156;21.048;2022-11-21T08:38:05;-1.50;99.90
18305;DHT22;9278;52.156;21.048;2022-11-21T08:40:34;-1.40;99.90
18305;DHT22;9278;52.156;21.048;2022-11-21T08:43:04;-1.40;99.90
18305;DHT22;9278;52.156;21.048;2022-11-21T08:45:34;-1.40;99.90
18305;DHT22;9278;52.156;21.048;2022-11-21T08:48:07;-1.30;99.90
18305;DHT22;9278;52.156;21.048;2022-11-21T08:50:36;-1.20;99.90
18305;DHT22;9278;52.156;21.048;2022-11-21T08:53:04;-1.20;99.90
18305;DHT22;9278;52.156;21.048;2022-11-21T08:55:32;-1.10;99.90
18305;DHT22;9278;52.156;21.048;2022-11-21T08:58:00;-0.90;99.90
18305;DHT22;9278;52.156;21.048;2022-11-21T09:00:28;-0.80;99.90
18305;DHT22;9278;52.156;21.048;2022-11-21T09:02:57;-0.90;99.90
18305;DHT22;9278;52.156;21.048;2022-11-21T09:05:25;-0.70;99.90
18305;DHT22;9278;52.156;21.048;2022-11-21T09:07:56;-0.80;99.90
18305;DHT22;9278;52.156;21.048;2022-11-21T09:10:25;-0.60;99.90
18305;DHT22;9278;52.156;21.048;2022-11-21T09:12:56;-0.40;99.90
18305;DHT22;9278;52.156;21.048;2022-11-21T09:15:24;-0.30;99.90
18305;DHT22;9278;52.156;21.048;2022-11-21T09:18:11;-0.20;99.90
18305;DHT22;9278;52.156;21.048;2022-11-21T09:20:41;-0.30;99.90
18305;DHT22;9278;52.156;21.048;2022-11-21T09:23:11;-0.10;99.90
18305;DHT22;9278;52.156;21.048;2022-11-21T09:25:42;-0.10;99.90
18305;DHT22;9278;52.156;21.048;2022-11-21T09:28:12;-0.10;99.90
18305;DHT22;9278;52.156;21.048;2022-11-21T09:30:41;0.20;99.90
18305;DHT22;9278;52.156;21.048;2022-11-21T09:33:12;0.20;99.90
18305;DHT22;9278;52.156;21.048;2022-11-21T09:35:40;0.40;99.90
18305;DHT22;9278;52.156;21.048;2022-11-21T09:38:08;0.70;99.90
18305;DHT22;9278;52.156;21.048;2022-11-21T09:40:41;0.70;99.90
18305;DHT22;9278;52.156;21.048;2022-11-21T09:43:33;0.80;99.90
18305;DHT22;9278;52.156;21.048;2022-11-21T09:46:09;0.80;99.90
18305;DHT22;9278;52.156;21.048;2022-11-21T09:48:45;0.70;99.90
18305;DHT22;9278;52.156;21.048;2022-11-21T09:51:17;0.20;99.90
18305;DHT22;9278;52.156;21.048;2022-11-21T09:53:53;0.00;99.90
18305;DHT22;9278;52.156;21.048;2022-11-21T09:56:22;0.10;99.90
18305;DHT22;9278;52.156;21.048;2022-11-21T09:58:58;0.10;99.90
18305;DHT22;9278;52.156;21.048;2022-11-21T10:01:32;0.10;99.90
18305;DHT22;9278;52.156;21.048;2022-11-21T10:04:03;0.10;99.90
18305;DHT22;9278;52.156;21.048;2022-11-21T10:06:34;0.20;99.90
18305;DHT22;9278;52.156;21.048;2022-11-21T10:09:08;0.30;99.90
18305;DHT22;9278;52.156;21.048;2022-11-21T10:11:45;0.50;99.90
18305;DHT22;9278;52.156;21.048;2022-11-21T10:14:47;0.50;99.90
18305;DHT22;9278;52.156;21.048;2022-11-21T10:17:25;0.30;99.90
18305;DHT22;9278;52.156;21.048;2022-11-21T10:20:11;0.40;99.90
18305;DHT22;9278;52.156;21.048;2022-11-21T10:22:52;0.50;99.90
18305;DHT22;9278;52.156;21.048;2022-11-21T10:25:24;0.40;99.90
18305;DHT22;9278;52.156;21.048;2022-11-21T10:27:55;0.70;99.90
18305;DHT22;9278;52.156;21.048;2022-11-21T10:30:24;0.90;99.90
18305;DHT22;9278;52.156;21.048;2022-11-21T10:32:54;1.00;99.90
18305;DHT22;9278;52.156;21.048;2022-11-21T10:35:29;1.10;99.90
18305;DHT22;9278;52.156;21.048;2022-11-21T10:38:18;1.20;99.90
18305;DHT22;9278;52.156;21.048;2022-11-21T10:40:50;1.50;99.90
18305;DHT22;9278;52.156;21.048;2022-11-21T10:43:28;1.70;99.90
18305;DHT22;9278;52.156;21.048;2022-11-21T10:46:15;1.70;99.90
18305;DHT22;9278;52.156;21.048;2022-11-21T10:48:48;1.70;99.90
18305;DHT22;9278;52.156;21.048;2022-11-21T10:51:36;1.80;99.90
18305;DHT22;9278;52.156;21.048;2022-11-21T10:54:06;2.00;99.90
18305;DHT22;9278;52.156;21.048;2022-11-21T10:56:53;2.00;99.90
18305;DHT22;9278;52.156;21.048;2022-11-21T10:59:24;1.80;99.90
18305;DHT22;9278;52.156;21.048;2022-11-21T11:01:59;1.80;99.90
18305;DHT22;9278;52.156;21.048;2022-11-21T11:04:28;2.00;99.90
18305;DHT22;9278;52.156;21.048;2022-11-21T11:07:20;2.10;99.90
18305;DHT22;9278;52.156;21.048;2022-11-21T11:09:49;2.20;99.90
18305;DHT22;9278;52.156;21.048;2022-11-21T11:12:28;2.20;99.90
18305;DHT22;9278;52.156;21.048;2022-11-21T11:15:17;2.20;99.90
18305;DHT22;9278;52.156;21.048;2022-11-21T11:17:50;2.20;99.90
18305;DHT22;9278;52.156;21.048;2022-11-21T11:20:36;2.30;99.90
18305;DHT22;9278;52.156;21.048;2022-11-21T11:23:24;2.40;99.90
18305;DHT22;9278;52.156;21.048;2022-11-21T11:25:54;2.40;99.90
18305;DHT22;9278;52.156;21.048;2022-11-21T11:28:23;2.60;99.90
18305;DHT22;9278;52.156;21.048;2022-11-21T11:30:53;2.80;99.90
18305;DHT22;9278;52.156;21.048;2022-11-21T11:33:33;2.80;99.90
18305;DHT22;9278;52.156;21.048;2022-11-21T11:36:10;2.90;99.90
18305;DHT22;9278;52.156;21.048;2022-11-21T11:38:42;3.30;99.90
18305;DHT22;9278;52.156;21.048;2022-11-21T11:41:24;3.70;99.90
18305;DHT22;9278;52.156;21.048;2022-11-21T11:44:00;3.70;99.90
18305;DHT22;9278;52.156;21.048;2022-11-21T11:46:55;3.60;99.90
18305;DHT22;9278;52.156;21.048;2022-11-21T11:49:44;3.40;99.90
18305;DHT22;9278;52.156;21.048;2022-11-21T11:52:38;3.60;99.90
18305;DHT22;9278;52.156;21.048;2022-11-21T11:55:16;3.90;99.90
18305;DHT22;9278;52.156;21.048;2022-11-21T11:57:47;4.00;99.90
18305;DHT22;9278;52.156;21.048;2022-11-21T12:00:25;4.00;99.90
18305;DHT22;9278;52.156;21.048;2022-11-21T12:02:59;4.10;99.90
18305;DHT22;9278;52.156;21.048;2022-11-21T12:05:29;4.30;99.90
18305;DHT22;9278;52.156;21.048;2022-11-21T12:08:05;4.30;99.90
18305;DHT22;9278;52.156;21.048;2022-11-21T12:11:10;4.40;99.90
18305;DHT22;9278;52.156;21.048;2022-11-21T12:14:03;4.20;99.90
18305;DHT22;9278;52.156;21.048;2022-11-21T12:16:33;3.80;99.90
18305;DHT22;9278;52.156;21.048;2022-11-21T12:19:09;3.90;99.90
18305;DHT22;9278;52.156;21.048;2022-11-21T12:21:39;4.10;99.90
18305;DHT22;9278;52.156;21.048;2022-11-21T12:24:08;4.10;99.90
18305;DHT22;9278;52.156;21.048;2022-11-21T12:26:48;4.20;99.90
18305;DHT22;9278;52.156;21.048;2022-11-21T12:29:31;3.80;99.90
18305;DHT22;9278;52.156;21.048;2022-11-21T12:32:21;3.90;99.90
18305;DHT22;9278;52.156;21.048;2022-11-21T12:37:55;3.80;99.90
18305;DHT22;9278;52.156;21.048;2022-11-21T12:40:38;3.90;99.90
18305;DHT22;9278;52.156;21.048;2022-11-21T12:43:19;3.80;99.90
18305;DHT22;9278;52.156;21.048;2022-11-21T12:45:54;3.80;99.90
18305;DHT22;9278;52.156;21.048;2022-11-21T12:48:35;3.80;99.90
18305;DHT22;9278;52.156;21.048;2022-11-21T12:54:45;3.20;99.90
18305;DHT22;9278;52.156;21.048;2022-11-21T12:57:17;3.10;99.90
18305;DHT22;9278;52.156;21.048;2022-11-21T12:59:52;2.80;99.90
18305;DHT22;9278;52.156;21.048;2022-11-21T13:02:27;2.90;99.90
18305;DHT22;9278;52.156;21.048;2022-11-21T13:04:58;3.00;99.90
18305;DHT22;9278;52.156;21.048;2022-11-21T13:07:28;3.10;99.90
18305;DHT22;9278;52.156;21.048;2022-11-21T13:09:59;3.30;99.90
18305;DHT22;9278;52.156;21.048;2022-11-21T13:12:34;3.40;99.90
18305;DHT22;9278;52.156;21.048;2022-11-21T13:15:17;3.30;99.90
18305;DHT22;9278;52.156;21.048;2022-11-21T13:17:51;3.40;99.90
18305;DHT22;9278;52.156;21.048;2022-11-21T13:20:27;3.30;99.90
18305;DHT22;9278;52.156;21.048;2022-11-21T13:22:58;3.20;99.90
18305;DHT22;9278;52.156;21.048;2022-11-21T13:25:43;3.40;99.90
18305;DHT22;9278;52.156;21.048;2022-11-21T13:31:37;3.40;99.90
18305;DHT22;9278;52.156;21.048;2022-11-21T13:34:37;3.50;99.90
18305;DHT22;9278;52.156;21.048;2022-11-21T13:40:37;3.20;99.90
18305;DHT22;9278;52.156;21.048;2022-11-21T13:43:19;3.00;99.90
18305;DHT22;9278;52.156;21.048;2022-11-21T13:45:59;3.00;99.90
18305;DHT22;9278;52.156;21.048;2022-11-21T13:48:48;3.00;99.90
18305;DHT22;9278;52.156;21.048;2022-11-21T13:54:42;2.80;99.90
18305;DHT22;9278;52.156;21.048;2022-11-21T13:57:27;2.70;99.90
18305;DHT22;9278;52.156;21.048;2022-11-21T14:00:28;2.80;99.90
18305;DHT22;9278;52.156;21.048;2022-11-21T14:03:24;3.00;99.90
18305;DHT22;9278;52.156;21.048;2022-11-21T14:09:24;2.50;99.90
18305;DHT22;9278;52.156;21.048;2022-11-21T14:11:56;2.60;99.90
18305;DHT22;9278;52.156;21.048;2022-11-21T14:14:30;2.70;99.90
18305;DHT22;9278;52.156;21.048;2022-11-21T14:17:13;2.70;99.90
18305;DHT22;9278;52.156;21.048;2022-11-21T14:19:44;2.80;99.90
18305;DHT22;9278;52.156;21.048;2022-11-21T14:22:23;2.70;99.90
18305;DHT22;9278;52.156;21.048;2022-11-21T14:24:59;2.60;99.90
18305;DHT22;9278;52.156;21.048;2022-11-21T14:27:30;2.60;99.90
18305;DHT22;9278;52.156;21.048;2022-11-21T14:30:00;2.50;99.90
18305;DHT22;9278;52.156;21.048;2022-11-21T14:32:29;2.50;99.90
18305;DHT22;9278;52.156;21.048;2022-11-21T14:35:08;2.50;99.90
18305;DHT22;9278;52.156;21.048;2022-11-21T14:37:41;2.60;99.90
18305;DHT22;9278;52.156;21.048;2022-11-21T14:40:12;2.50;99.90
18305;DHT22;9278;52.156;21.048;2022-11-21T14:42:47;2.30;99.90
18305;DHT22;9278;52.156;21.048;2022-11-21T14:45:21;2.40;99.90
18305;DHT22;9278;52.156;21.048;2022-11-21T14:47:51;2.30;99.90
18305;DHT22;9278;52.156;21.048;2022-11-21T14:50:23;2.30;99.90
18305;DHT22;9278;52.156;21.048;2022-11-21T14:52:51;2.20;99.90
18305;DHT22;9278;52.156;21.048;2022-11-21T14:55:27;2.00;99.90
18305;DHT22;9278;52.156;21.048;2022-11-21T14:58:00;1.90;99.90
18305;DHT22;9278;52.156;21.048;2022-11-21T15:00:29;2.10;99.90
18305;DHT22;9278;52.156;21.048;2022-11-21T15:03:19;1.90;99.90
18305;DHT22;9278;52.156;21.048;2022-11-21T15:05:49;2.00;99.90
18305;DHT22;9278;52.156;21.048;2022-11-21T15:08:32;2.10;99.90
18305;DHT22;9278;52.156;21.048;2022-11-21T15:11:23;2.10;99.90
18305;DHT22;9278;52.156;21.048;2022-11-21T15:14:03;1.90;99.90
18305;DHT22;9278;52.156;21.048;2022-11-21T15:16:42;2.10;99.90
18305;DHT22;9278;52.156;21.048;2022-11-21T15:19:10;2.20;99.90
18305;DHT22;9278;52.156;21.048;2022-11-21T15:21:43;1.90;99.90
18305;DHT22;9278;52.156;21.048;2022-11-21T15:24:17;1.80;99.90
18305;DHT22;9278;52.156;21.048;2022-11-21T15:26:45;1.90;99.90
18305;DHT22;9278;52.156;21.048;2022-11-21T15:29:19;1.80;99.90
18305;DHT22;9278;52.156;21.048;2022-11-21T15:32:06;1.90;99.90
18305;DHT22;9278;52.156;21.048;2022-11-21T15:34:41;1.80;99.90
18305;DHT22;9278;52.156;21.048;2022-11-21T15:37:13;1.60;99.90
18305;DHT22;9278;52.156;21.048;2022-11-21T15:39:43;1.70;99.90
18305;DHT22;9278;52.156;21.048;2022-11-21T15:42:34;1.60;99.90
18305;DHT22;9278;52.156;21.048;2022-11-21T15:45:20;1.60;99.90
18305;DHT22;9278;52.156;21.048;2022-11-21T15:47:49;1.70;99.90
18305;DHT22;9278;52.156;21.048;2022-11-21T15:50:17;2.20;99.90
18305;DHT22;9278;52.156;21.048;2022-11-21T15:52:50;1.80;99.90
18305;DHT22;9278;52.156;21.048;2022-11-21T15:55:20;1.90;99.90
18305;DHT22;9278;52.156;21.048;2022-11-21T15:57:48;1.80;99.90
18305;DHT22;9278;52.156;21.048;2022-11-21T16:00:18;1.70;99.90
18305;DHT22;9278;52.156;21.048;2022-11-21T16:02:46;1.60;99.90
18305;DHT22;9278;52.156;21.048;2022-11-21T16:05:15;1.70;99.90
18305;DHT22;9278;52.156;21.048;2022-11-21T16:07:43;1.80;99.90
18305;DHT22;9278;52.156;21.048;2022-11-21T16:10:11;1.80;99.90
18305;DHT22;9278;52.156;21.048;2022-11-21T16:12:51;1.70;99.90
18305;DHT22;9278;52.156;21.048;2022-11-21T16:15:21;1.70;99.90
18305;DHT22;9278;52.156;21.048;2022-11-21T16:17:50;1.50;99.90
18305;DHT22;9278;52.156;21.048;2022-11-21T16:20:19;1.40;99.90
18305;DHT22;9278;52.156;21.048;2022-11-21T16:22:48;1.50;99.90
18305;DHT22;9278;52.156;21.048;2022-11-21T16:25:16;1.50;99.90
18305;DHT22;9278;52.156;21.048;2022-11-21T16:27:44;1.60;99.90
18305;DHT22;9278;52.156;21.048;2022-11-21T16:30:13;1.70;99.90
18305;DHT22;9278;52.156;21.048;2022-11-21T16:32:43;1.50;99.90
18305;DHT22;9278;52.156;21.048;2022-11-21T16:35:11;1.40;99.90